Biggs Army Air Field (Fort Bliss)
KBIF : now visible

Airfield :











YOU CAN JOIN US ON...

 
LOGIN :

Register | Disclaimer

   EN    FR    IT 

 









Legend :    VFR   Marginal VFR   IFR   Intensive IFR   Very Intensive IFR
Visi :
Ceiling :
>= 8 km
>= 3000ft
5 to 8 km
1000 to 3000 ft
1500m to 5 km
500 to 1000 ft
800 to 1500m
200 to 500 ft
< 800m
< 200 ft
Symbols :   Thunderstorms  Fog  Heavy snow  Heavy precipitations  Wind > 20 kt






- Airport Elevation : 3946 ft


KBIF - Biggs Army Air Field (Fort Bliss)

CURRENT METAR :
  • 250455Z AUTO 33009KT 10SM CLR 32/12 A2994 RMK AO2 SLP057 T03200117 $

EXPIRED METARs :
  • 250355Z AUTO 01011KT 10SM BKN150 33/12 A2994 RMK AO2 SLPNO T03300115 $
  • 250255Z AUTO 00000KT 10SM CLR 37/08 A2990 RMK AO2 SLPNO T03660084 53004 $
  • 250155Z AUTO 15004KT 9SM CLR 38/08 A2988 RMK AO2 SLPNO T03760084 $
  • 250055Z AUTO 00000KT 10SM CLR 38/09 A2988 RMK AO2 SLPNO T03830089 $

TAF AMD TAF KBIF
Valid from the 25 at 04:00 until the 26 at 09:00 UTC


250350Z 2504/2609 02015G25KT 9000 HZ SCT120 QNH2989INS
BECMG 2507/2508 09012KT 9999 NSW BKN120 QNH2993INS
TEMPO 2520/2523 VCTS 9999 BKN140
BECMG 2603/2604 23012KT 9999 BKN150 QNH2994INS TX40/2523Z TN24/2512Z
KZAB FIR / North America



MET'MAP, your aeronautical weather chart ! - Copyright ORBIFLY December 2007 - Disclaimer

ORBIFLY MET'MAP TEAM :

Programming & Development : Alexandra Zaïnal
Original concept : Baudouin d'Aumeries
Technical & hardware support : Manuel Goepfert
Assistance : Marc-Olivier Méhu




SOURCES & CREDITS :

   NOAA       Earth
Advisory